createdAt,value
2023-02-12T00:02:04.492Z,99460.78
2023-02-12T00:04:33.120Z,99469.00
2023-02-12T00:07:03.176Z,99463.25
2023-02-12T00:09:31.760Z,99463.34
2023-02-12T00:12:00.482Z,99474.75
2023-02-12T00:14:29.444Z,99462.38
2023-02-12T00:16:57.681Z,99459.19
2023-02-12T00:19:26.936Z,99460.63
2023-02-12T00:21:55.144Z,99464.44
2023-02-12T00:24:25.257Z,99467.41
2023-02-12T00:26:53.578Z,99471.91
2023-02-12T00:29:22.130Z,99476.34
2023-02-12T00:31:50.797Z,99482.34
2023-02-12T00:34:19.490Z,99484.75
2023-02-12T00:36:47.870Z,99469.97
2023-02-12T00:39:16.614Z,99481.44
2023-02-12T00:41:46.528Z,99483.63
2023-02-12T00:44:15.324Z,99485.94
2023-02-12T00:46:43.737Z,99489.03
2023-02-12T00:49:12.729Z,99483.94
2023-02-12T00:51:41.150Z,99485.84
2023-02-12T00:54:09.952Z,99482.63
2023-02-12T00:56:38.173Z,99488.66
2023-02-12T00:59:08.327Z,99486.25
2023-02-12T01:01:37.109Z,99495.00
2023-02-12T01:04:06.031Z,99490.22
2023-02-12T01:06:34.613Z,99493.53
2023-02-12T01:09:03.373Z,99500.44
2023-02-12T01:11:31.718Z,99499.22
2023-02-12T01:14:01.162Z,99499.84
2023-02-12T01:16:33.860Z,99495.59
2023-02-12T01:19:02.911Z,99507.94
2023-02-12T01:21:33.477Z,99501.31
2023-02-12T01:24:02.304Z,99505.66
2023-02-12T01:26:31.817Z,99505.66
2023-02-12T01:29:02.517Z,99504.75
2023-02-12T01:31:34.296Z,99504.84
2023-02-12T01:34:03.164Z,99505.09
2023-02-12T01:36:31.869Z,99513.13
2023-02-12T01:39:03.076Z,99515.88
2023-02-12T01:41:33.736Z,99524.19
2023-02-12T01:44:08.897Z,99530.22
2023-02-12T01:46:39.001Z,99530.22
2023-02-12T01:49:10.335Z,99524.53
2023-02-12T01:51:39.120Z,99527.00
2023-02-12T01:54:09.123Z,99531.06
2023-02-12T01:56:38.533Z,99537.13
2023-02-12T01:59:07.200Z,99546.94
2023-02-12T02:01:36.150Z,99552.28
2023-02-12T02:04:08.622Z,99544.31
2023-02-12T02:06:41.371Z,99544.78
2023-02-12T02:09:10.354Z,99546.75
2023-02-12T02:11:55.958Z,99545.50
2023-02-12T02:14:33.781Z,99547.63
2023-02-12T02:17:21.917Z,99559.03
2023-02-12T02:20:19.705Z,99559.38
2023-02-12T02:22:52.597Z,99557.94
2023-02-12T02:25:56.283Z,99558.41
2023-02-12T02:28:38.261Z,99559.72
2023-02-12T02:31:12.948Z,99565.31
2023-02-12T02:33:47.473Z,99563.78
2023-02-12T02:36:25.834Z,99557.59
2023-02-12T02:38:57.408Z,99574.44
2023-02-12T02:41:30.832Z,99586.78
2023-02-12T02:43:59.820Z,99586.88
2023-02-12T02:46:35.010Z,99593.63
2023-02-12T02:49:06.507Z,99603.94
2023-02-12T02:51:38.972Z,99601.69
2023-02-12T02:54:11.201Z,99593.50
2023-02-12T02:56:41.250Z,99580.84
2023-02-12T02:59:12.476Z,99591.50
2023-02-12T03:01:44.364Z,99603.34
2023-02-12T03:04:17.950Z,99605.59
2023-02-12T03:06:50.062Z,99615.34
2023-02-12T03:09:22.675Z,99613.78
2023-02-12T03:11:51.776Z,99616.59
2023-02-12T03:14:23.898Z,99626.00
2023-02-12T03:16:57.110Z,99621.97
2023-02-12T03:19:27.339Z,99631.34
2023-02-12T03:21:59.460Z,99636.44
2023-02-12T03:24:30.664Z,99644.03
2023-02-12T03:27:10.024Z,99654.84
2023-02-12T03:29:39.087Z,99651.00
2023-02-12T03:32:18.345Z,99654.00
2023-02-12T03:34:50.631Z,99656.03
2023-02-12T03:37:23.575Z,99657.41
2023-02-12T03:39:56.559Z,99669.63
2023-02-12T03:42:32.475Z,99679.72
2023-02-12T03:45:04.172Z,99673.06
2023-02-12T03:47:41.342Z,99681.50
2023-02-12T03:50:14.198Z,99687.41
2023-02-12T03:52:43.485Z,99696.00
2023-02-12T03:55:12.946Z,99702.81
2023-02-12T03:57:44.141Z,99697.47
2023-02-12T04:00:15.807Z,99702.47
2023-02-12T04:02:46.191Z,99706.97
2023-02-12T04:05:19.248Z,99706.78
2023-02-12T04:07:48.557Z,99715.38
2023-02-12T04:10:17.250Z,99724.53
2023-02-12T04:12:54.398Z,99717.19
2023-02-12T04:15:46.735Z,99730.50
2023-02-12T04:18:21.456Z,99732.53
2023-02-12T04:20:55.366Z,99733.59
2023-02-12T04:23:43.697Z,99736.22
2023-02-12T04:26:19.090Z,99741.78
2023-02-12T04:28:52.312Z,99739.38
2023-02-12T04:31:25.272Z,99743.78
2023-02-12T04:34:02.057Z,99746.13
2023-02-12T04:36:34.955Z,99740.91
2023-02-12T04:39:06.318Z,99748.34
2023-02-12T04:41:34.999Z,99753.78
2023-02-12T04:44:19.294Z,99752.00
2023-02-12T04:46:47.772Z,99749.38
2023-02-12T04:49:19.527Z,99762.16
2023-02-12T04:51:47.781Z,99764.06
2023-02-12T04:54:17.323Z,99761.41
2023-02-12T04:56:46.557Z,99766.50
2023-02-12T04:59:15.861Z,99773.03
2023-02-12T05:01:45.665Z,99782.13
2023-02-12T05:04:16.364Z,99783.16
2023-02-12T05:06:47.222Z,99788.97
2023-02-12T05:09:18.227Z,99787.41
2023-02-12T05:11:46.887Z,99784.72
2023-02-12T05:14:16.520Z,99788.97
2023-02-12T05:16:45.219Z,99790.91
2023-02-12T05:19:13.831Z,99799.66
2023-02-12T05:21:42.206Z,99803.44
2023-02-12T05:24:12.718Z,99810.09
2023-02-12T05:26:40.919Z,99813.66
2023-02-12T05:29:09.610Z,99818.03
2023-02-12T05:31:37.939Z,99811.53
2023-02-12T05:34:08.551Z,99812.94
2023-02-12T05:36:37.168Z,99817.06
2023-02-12T05:39:07.546Z,99827.88
2023-02-12T05:41:37.269Z,99832.72
2023-02-12T05:44:06.713Z,99831.00
2023-02-12T05:46:35.346Z,99836.44
2023-02-12T05:49:03.870Z,99841.16
2023-02-12T05:51:33.389Z,99847.47
2023-02-12T05:54:04.753Z,99856.09
2023-02-12T05:56:34.533Z,99851.34
2023-02-12T05:59:07.197Z,99857.25
2023-02-12T06:01:37.300Z,99866.31
2023-02-12T06:04:07.847Z,99870.34
2023-02-12T06:06:36.698Z,99870.31
2023-02-12T06:09:05.536Z,99878.19
2023-02-12T06:11:33.744Z,99888.19
2023-02-12T06:14:05.024Z,99897.25
2023-02-12T06:16:33.808Z,99901.09
2023-02-12T06:19:04.019Z,99903.72
2023-02-12T06:21:32.871Z,99911.88
2023-02-12T06:24:01.805Z,99921.81
2023-02-12T06:26:30.492Z,99918.03
2023-02-12T06:28:59.050Z,99917.72
2023-02-12T06:31:30.903Z,99920.81
2023-02-12T06:34:01.947Z,99917.03
2023-02-12T06:36:30.488Z,99924.66
2023-02-12T06:38:58.968Z,99933.16
2023-02-12T06:41:28.070Z,99933.22
2023-02-12T06:43:56.530Z,99937.16
2023-02-12T06:46:25.147Z,99939.75
2023-02-12T06:48:55.839Z,99939.16
2023-02-12T06:51:24.123Z,99943.81
2023-02-12T06:53:53.511Z,99950.66
2023-02-12T06:56:23.188Z,99956.16
2023-02-12T06:58:55.079Z,99955.66
2023-02-12T07:01:25.355Z,99963.75
2023-02-12T07:03:57.358Z,99966.22
2023-02-12T07:06:26.942Z,99968.00
2023-02-12T07:08:55.895Z,99972.78
2023-02-12T07:11:25.581Z,99971.97
2023-02-12T07:13:54.118Z,99970.31
2023-02-12T07:16:22.727Z,99966.38
2023-02-12T07:18:51.647Z,99968.72
2023-02-12T07:21:21.437Z,99966.56
2023-02-12T07:23:51.572Z,99973.47
2023-02-12T07:26:21.546Z,99973.94
2023-02-12T07:28:50.466Z,99976.84
2023-02-12T07:31:20.343Z,99976.25
2023-02-12T07:33:49.255Z,99969.09
2023-02-12T07:36:19.758Z,99961.03
2023-02-12T07:38:50.073Z,99970.75
2023-02-12T07:41:20.724Z,99977.69
2023-02-12T07:43:50.598Z,99983.53
2023-02-12T07:46:20.907Z,99993.41
2023-02-12T07:48:49.995Z,100000.53
2023-02-12T07:51:20.061Z,100005.94
2023-02-12T07:53:50.444Z,99998.31
2023-02-12T07:56:21.142Z,100018.44
2023-02-12T07:58:51.196Z,100012.44
2023-02-12T08:01:21.535Z,100013.75
2023-02-12T08:03:51.891Z,100014.16
2023-02-12T08:06:23.086Z,100012.63
2023-02-12T08:08:54.195Z,100015.94
2023-02-12T08:11:23.115Z,100028.84
2023-02-12T08:13:52.095Z,100029.41
2023-02-12T08:16:22.485Z,100038.78
2023-02-12T08:18:51.813Z,100045.00
2023-02-12T08:21:21.685Z,100045.22
2023-02-12T08:23:51.107Z,100042.47
2023-02-12T08:26:22.871Z,100054.31
2023-02-12T08:28:53.637Z,100045.94
2023-02-12T08:31:23.449Z,100047.44
2023-02-12T08:33:53.665Z,100048.84
2023-02-12T08:36:24.124Z,100050.66
2023-02-12T08:38:53.198Z,100049.56
2023-02-12T08:41:24.825Z,100051.16
2023-02-12T08:43:55.159Z,100062.47
2023-02-12T08:46:25.650Z,100060.16
2023-02-12T08:48:55.584Z,100070.19
2023-02-12T08:51:26.208Z,100070.84
2023-02-12T08:53:56.659Z,100073.22
2023-02-12T08:56:27.438Z,100063.53
2023-02-12T08:58:56.000Z,100076.09
2023-02-12T09:01:26.630Z,100079.22
2023-02-12T09:03:55.349Z,100074.72
2023-02-12T09:06:25.863Z,100074.63
2023-02-12T09:08:56.030Z,100084.50
2023-02-12T09:11:30.870Z,100081.72
2023-02-12T09:14:01.087Z,100094.91
2023-02-12T09:16:30.896Z,100084.47
2023-02-12T09:18:59.953Z,100073.81
2023-02-12T09:21:31.374Z,100081.97
2023-02-12T09:24:00.117Z,100086.75
2023-02-12T09:26:29.784Z,100093.09
2023-02-12T09:28:58.382Z,100091.13
2023-02-12T09:31:29.239Z,100091.22
2023-02-12T09:34:01.040Z,100087.34
2023-02-12T09:36:29.280Z,100092.50
2023-02-12T09:38:59.542Z,100092.16
2023-02-12T09:42:09.279Z,100089.41
2023-02-12T09:44:43.488Z,100102.38
2023-02-12T09:47:16.800Z,100098.19
2023-02-12T09:50:23.955Z,100095.19
2023-02-12T09:52:52.682Z,100099.50
2023-02-12T09:55:21.566Z,100099.72
2023-02-12T09:57:54.411Z,100098.78
2023-02-12T10:00:28.121Z,100090.41
2023-02-12T10:02:56.732Z,100090.91
2023-02-12T10:05:29.075Z,100102.66
2023-02-12T10:08:33.629Z,100098.72
2023-02-12T10:11:12.554Z,100095.28
2023-02-12T10:13:49.545Z,100097.56
2023-02-12T10:16:28.072Z,100099.72
2023-02-12T10:19:15.328Z,100104.59
2023-02-12T10:21:52.564Z,100098.78
2023-02-12T10:24:31.357Z,100103.38
2023-02-12T10:27:02.240Z,100104.34
2023-02-12T10:29:35.575Z,100097.41
2023-02-12T10:32:07.329Z,100101.44
2023-02-12T10:34:37.656Z,100100.88
2023-02-12T10:37:06.987Z,100100.06
2023-02-12T10:39:37.932Z,100109.97
2023-02-12T10:42:13.685Z,100095.13
2023-02-12T10:44:43.427Z,100105.06
2023-02-12T10:47:16.279Z,100110.84
2023-02-12T10:49:44.630Z,100104.31
2023-02-12T10:52:19.440Z,100104.31
2023-02-12T10:54:49.656Z,100110.41
2023-02-12T10:57:21.565Z,100104.31
2023-02-12T10:59:53.378Z,100093.81
2023-02-12T11:02:26.328Z,100097.94
2023-02-12T11:04:56.412Z,100102.19
2023-02-12T11:07:26.623Z,100102.59
2023-02-12T11:09:56.924Z,100100.44
2023-02-12T11:12:33.254Z,100098.38
2023-02-12T11:15:05.411Z,100097.41
2023-02-12T11:17:37.479Z,100094.53
2023-02-12T11:20:22.707Z,100093.34
2023-02-12T11:22:53.399Z,100086.84
2023-02-12T11:25:23.636Z,100083.91
2023-02-12T11:28:05.312Z,100083.88
2023-02-12T11:30:35.815Z,100082.09
2023-02-12T11:33:17.884Z,100082.63
2023-02-12T11:35:53.922Z,100082.25
2023-02-12T11:38:28.642Z,100077.53
2023-02-12T11:41:00.792Z,100087.34
2023-02-12T11:43:31.203Z,100078.88
2023-02-12T11:46:02.182Z,100088.81
2023-02-12T11:48:33.419Z,100072.50
2023-02-12T11:51:02.424Z,100085.81
2023-02-12T11:53:32.792Z,100077.81
2023-02-12T11:56:03.761Z,100087.84
2023-02-12T11:58:33.230Z,100077.56
2023-02-12T12:01:12.303Z,100082.88
2023-02-12T12:03:47.132Z,100088.75
2023-02-12T12:06:23.506Z,100095.78
2023-02-12T12:08:57.462Z,100081.34
2023-02-12T12:11:30.028Z,100095.63
2023-02-12T12:14:01.014Z,100089.81
2023-02-12T12:16:50.504Z,100091.78
2023-02-12T12:19:39.291Z,100092.91
2023-02-12T12:22:15.696Z,100091.28
2023-02-12T12:24:48.996Z,100089.19
2023-02-12T12:27:46.510Z,100096.66
2023-02-12T12:30:22.176Z,100099.47
2023-02-12T12:32:54.444Z,100103.53
2023-02-12T12:35:28.393Z,100098.69
2023-02-12T12:38:00.033Z,100105.22
2023-02-12T12:40:40.124Z,100105.94
2023-02-12T12:43:13.002Z,100105.63
2023-02-12T12:46:01.649Z,100109.47
2023-02-12T12:48:45.608Z,100109.50
2023-02-12T12:51:24.848Z,100114.72
2023-02-12T12:54:05.228Z,100112.94
2023-02-12T12:56:46.989Z,100112.69
2023-02-12T12:59:44.025Z,100119.06
2023-02-12T13:02:38.358Z,100126.41
2023-02-12T13:05:41.240Z,100128.25
2023-02-12T13:08:18.993Z,100124.59
2023-02-12T13:10:49.881Z,100135.56
2023-02-12T13:13:30.605Z,100129.44
2023-02-12T13:16:06.612Z,100130.09
2023-02-12T13:18:49.217Z,100130.63
2023-02-12T13:21:31.008Z,100123.00
2023-02-12T13:24:04.799Z,100122.25
2023-02-12T13:26:43.178Z,100118.09
2023-02-12T13:29:16.696Z,100122.75
2023-02-12T13:31:49.608Z,100126.66
2023-02-12T13:34:20.060Z,100132.44
2023-02-12T13:36:50.885Z,100133.13
2023-02-12T13:39:27.003Z,100124.50
2023-02-12T13:42:03.531Z,100122.41
2023-02-12T13:44:37.322Z,100123.81
2023-02-12T13:47:12.555Z,100124.06
2023-02-12T13:49:46.130Z,100127.81
2023-02-12T13:52:22.822Z,100122.94
2023-02-12T13:54:59.607Z,100133.56
2023-02-12T13:57:28.054Z,100133.97
2023-02-12T13:59:58.345Z,100138.47
2023-02-12T14:02:45.228Z,100141.47
2023-02-12T14:05:27.191Z,100136.88
2023-02-12T14:07:57.291Z,100129.91
2023-02-12T14:10:29.469Z,100131.81
2023-02-12T14:13:08.824Z,100131.09
2023-02-12T14:15:39.444Z,100134.03
2023-02-12T14:18:23.924Z,100134.59
2023-02-12T14:21:25.630Z,100134.03
2023-02-12T14:23:55.678Z,100142.50
2023-02-12T14:26:25.177Z,100143.31
2023-02-12T14:28:54.928Z,100131.84
2023-02-12T14:31:40.974Z,100146.50
2023-02-12T14:35:14.450Z,100145.56
2023-02-12T14:37:58.348Z,100132.56
2023-02-12T14:40:56.625Z,100126.16
2023-02-12T14:43:56.449Z,100140.22
2023-02-12T14:46:55.544Z,100145.00
2023-02-12T14:49:44.966Z,100130.13
2023-02-12T14:52:20.745Z,100132.97
2023-02-12T14:54:51.542Z,100136.44
2023-02-12T14:57:27.805Z,100145.56
2023-02-12T14:59:58.044Z,100143.06
2023-02-12T15:02:28.536Z,100145.09
2023-02-12T15:05:01.290Z,100143.53
2023-02-12T15:07:33.273Z,100140.09
2023-02-12T15:10:10.237Z,100144.44
2023-02-12T15:12:42.902Z,100153.84
2023-02-12T15:15:17.732Z,100153.47
2023-02-12T15:17:58.157Z,100155.06
2023-02-12T15:20:32.790Z,100155.38
2023-02-12T15:23:03.374Z,100160.13
2023-02-12T15:25:34.137Z,100155.53
2023-02-12T15:28:07.584Z,100155.91
2023-02-12T15:30:37.661Z,100153.09
2023-02-12T15:33:08.383Z,100154.38
2023-02-12T15:35:38.937Z,100150.50
2023-02-12T15:38:08.728Z,100151.66
2023-02-12T15:40:37.422Z,100158.81
2023-02-12T15:43:08.673Z,100161.84
2023-02-12T15:45:40.101Z,100164.63
2023-02-12T15:48:18.635Z,100166.41
2023-02-12T15:50:51.055Z,100160.09
2023-02-12T15:53:19.619Z,100172.84
2023-02-12T15:55:49.677Z,100163.78
2023-02-12T15:58:25.376Z,100167.56
2023-02-12T16:00:54.864Z,100166.56
2023-02-12T16:03:24.882Z,100162.56
2023-02-12T16:05:54.810Z,100169.03
2023-02-12T16:08:24.654Z,100169.41
2023-02-12T16:10:54.829Z,100173.06
2023-02-12T16:13:28.548Z,100175.69
2023-02-12T16:16:08.709Z,100176.50
2023-02-12T16:18:37.255Z,100176.06
2023-02-12T16:21:08.699Z,100177.06
2023-02-12T16:23:37.306Z,100182.59
2023-02-12T16:26:06.349Z,100178.00
2023-02-12T16:28:36.441Z,100177.91
2023-02-12T16:31:11.483Z,100177.88
2023-02-12T16:33:47.986Z,100175.78
2023-02-12T16:36:30.485Z,100171.94
2023-02-12T16:39:01.154Z,100169.31
2023-02-12T16:41:31.910Z,100169.72
2023-02-12T16:44:26.752Z,100181.34
2023-02-12T16:46:57.319Z,100188.22
2023-02-12T16:49:27.245Z,100183.22
2023-02-12T16:52:36.455Z,100185.03
2023-02-12T16:55:05.757Z,100189.72
2023-02-12T16:57:34.295Z,100188.06
2023-02-12T17:00:04.881Z,100193.88
2023-02-12T17:02:33.938Z,100196.81
2023-02-12T17:05:05.632Z,100205.66
2023-02-12T17:07:35.406Z,100202.28
2023-02-12T17:10:04.666Z,100210.25
2023-02-12T17:12:33.330Z,100210.63
2023-02-12T17:15:06.062Z,100211.72
2023-02-12T17:17:34.982Z,100215.69
2023-02-12T17:20:03.825Z,100217.34
2023-02-12T17:22:32.798Z,100225.50
2023-02-12T17:25:01.049Z,100225.50
2023-02-12T17:27:29.734Z,100213.56
2023-02-12T17:29:58.015Z,100211.03
2023-02-12T17:32:28.144Z,100216.06
2023-02-12T17:34:56.550Z,100210.00
2023-02-12T17:37:25.582Z,100206.63
2023-02-12T17:39:55.383Z,100207.66
2023-02-12T17:42:24.010Z,100206.81
2023-02-12T17:44:52.457Z,100203.06
2023-02-12T17:47:21.214Z,100204.53
2023-02-12T17:49:51.065Z,100204.78
2023-02-12T17:52:20.015Z,100205.94
2023-02-12T17:54:49.133Z,100198.03
2023-02-12T17:57:18.786Z,100200.06
2023-02-12T17:59:47.257Z,100200.50
2023-02-12T18:02:15.985Z,100200.47
2023-02-12T18:04:44.418Z,100203.38
2023-02-12T18:07:14.472Z,100202.84
2023-02-12T18:09:42.927Z,100195.47
2023-02-12T18:12:11.570Z,100194.69
2023-02-12T18:14:40.040Z,100180.22
2023-02-12T18:17:08.801Z,100195.94
2023-02-12T18:19:37.252Z,100183.78
2023-02-12T18:22:06.013Z,100191.91
2023-02-12T18:24:36.620Z,100189.91
2023-02-12T18:27:05.459Z,100190.03
2023-02-12T18:29:33.824Z,100191.63
2023-02-12T18:32:02.583Z,100187.84
2023-02-12T18:34:30.907Z,100191.88
2023-02-12T18:36:59.922Z,100188.31
2023-02-12T18:39:29.565Z,100177.66
2023-02-12T18:41:59.728Z,100187.78
2023-02-12T18:44:28.084Z,100184.31
2023-02-12T18:46:59.247Z,100184.97
2023-02-12T18:49:28.007Z,100179.63
2023-02-12T18:51:56.959Z,100179.50
2023-02-12T18:54:25.320Z,100183.38
2023-02-12T18:56:54.906Z,100177.41
2023-02-12T18:59:27.134Z,100184.56
2023-02-12T19:01:56.456Z,100182.53
2023-02-12T19:04:27.900Z,100179.44
2023-02-12T19:06:56.671Z,100177.22
2023-02-12T19:09:26.832Z,100175.59
2023-02-12T19:11:57.243Z,100181.78
2023-02-12T19:14:27.891Z,100177.66
2023-02-12T19:16:56.507Z,100186.25
2023-02-12T19:19:25.344Z,100189.84
2023-02-12T19:21:54.250Z,100186.63
2023-02-12T19:24:23.144Z,100178.75
2023-02-12T19:26:52.874Z,100186.38
2023-02-12T19:29:21.938Z,100194.50
2023-02-12T19:31:52.181Z,100189.94
2023-02-12T19:34:22.375Z,100194.63
2023-02-12T19:36:51.301Z,100190.81
2023-02-12T19:39:21.945Z,100193.25
2023-02-12T19:41:50.996Z,100183.06
2023-02-12T19:44:21.088Z,100185.81
2023-02-12T19:46:52.204Z,100181.44
2023-02-12T19:49:22.515Z,100181.66
2023-02-12T19:51:51.887Z,100190.28
2023-02-12T19:54:21.613Z,100196.94
2023-02-12T19:56:50.894Z,100183.13
2023-02-12T19:59:21.125Z,100184.63
2023-02-12T20:01:51.645Z,100188.22
2023-02-12T20:04:21.809Z,100189.72
2023-02-12T20:06:51.113Z,100180.31
2023-02-12T20:09:21.132Z,100187.06
2023-02-12T20:11:49.807Z,100190.06
2023-02-12T20:14:21.039Z,100196.25
2023-02-12T20:16:51.872Z,100182.66
2023-02-12T20:19:22.605Z,100182.47
2023-02-12T20:21:55.251Z,100182.69
2023-02-12T20:24:25.570Z,100184.28
2023-02-12T20:26:55.020Z,100197.69
2023-02-12T20:29:23.576Z,100201.75
2023-02-12T20:31:53.896Z,100196.22
2023-02-12T20:34:22.400Z,100196.44
2023-02-12T20:36:51.251Z,100201.44
2023-02-12T20:39:21.298Z,100196.53
2023-02-12T20:41:50.310Z,100197.50
2023-02-12T20:44:20.757Z,100190.47
2023-02-12T20:46:54.489Z,100198.22
2023-02-12T20:49:26.751Z,100187.44
2023-02-12T20:51:56.152Z,100192.22
2023-02-12T20:54:24.975Z,100191.72
2023-02-12T20:56:53.669Z,100191.06
2023-02-12T20:59:21.845Z,100197.44
2023-02-12T21:01:50.915Z,100193.72
2023-02-12T21:04:20.376Z,100193.56
2023-02-12T21:06:50.273Z,100194.84
2023-02-12T21:09:20.087Z,100204.63
2023-02-12T21:11:49.082Z,100201.94
2023-02-12T21:14:22.567Z,100196.38
2023-02-12T21:16:52.635Z,100188.44
2023-02-12T21:19:21.608Z,100198.44
2023-02-12T21:21:51.591Z,100201.38
2023-02-12T21:24:22.057Z,100198.47
2023-02-12T21:26:51.122Z,100200.13
2023-02-12T21:29:20.377Z,100204.53
2023-02-12T21:31:50.712Z,100204.09
2023-02-12T21:34:21.337Z,100203.31
2023-02-12T21:36:51.895Z,100201.63
2023-02-12T21:39:26.269Z,100201.63
2023-02-12T21:41:56.827Z,100199.34
2023-02-12T21:44:25.932Z,100201.84
2023-02-12T21:46:54.782Z,100209.16
2023-02-12T21:49:28.030Z,100208.94
2023-02-12T21:52:02.128Z,100201.84
2023-02-12T21:54:31.114Z,100212.09
2023-02-12T21:57:00.337Z,100203.31
2023-02-12T21:59:31.750Z,100206.03
2023-02-12T22:02:01.887Z,100208.94
2023-02-12T22:04:30.612Z,100201.84
2023-02-12T22:07:03.274Z,100204.34
2023-02-12T22:09:31.918Z,100206.22
2023-02-12T22:12:00.385Z,100200.59
2023-02-12T22:14:28.710Z,100208.78
2023-02-12T22:16:57.214Z,100202.69
2023-02-12T22:19:25.521Z,100202.25
2023-02-12T22:21:54.026Z,100187.84
2023-02-12T22:24:23.660Z,100192.84
2023-02-12T22:26:52.122Z,100198.09
2023-02-12T22:29:22.769Z,100194.53
2023-02-12T22:31:51.456Z,100202.28
2023-02-12T22:34:20.494Z,100193.09
2023-02-12T22:36:49.215Z,100194.78
2023-02-12T22:39:18.759Z,100189.94
2023-02-12T22:41:48.918Z,100194.56
2023-02-12T22:44:20.058Z,100193.69
2023-02-12T22:46:50.449Z,100184.91
2023-02-12T22:49:18.951Z,100185.56
2023-02-12T22:51:47.443Z,100186.38
2023-02-12T22:54:16.669Z,100186.38
2023-02-12T22:56:45.698Z,100189.72
2023-02-12T22:59:15.262Z,100193.28
2023-02-12T23:01:43.842Z,100194.13
2023-02-12T23:04:16.120Z,100190.56
2023-02-12T23:06:45.298Z,100197.25
2023-02-12T23:09:15.360Z,100199.38
2023-02-12T23:11:43.897Z,100205.59
2023-02-12T23:14:12.315Z,100196.63
2023-02-12T23:16:42.268Z,100189.94
2023-02-12T23:19:11.767Z,100191.63
2023-02-12T23:21:40.380Z,100185.94
2023-02-12T23:24:09.028Z,100188.28
2023-02-12T23:26:37.809Z,100186.19
2023-02-12T23:29:06.066Z,100185.31
2023-02-12T23:31:34.800Z,100175.69
2023-02-12T23:34:04.469Z,100166.47
2023-02-12T23:36:33.218Z,100174.06
2023-02-12T23:39:01.448Z,100170.91
2023-02-12T23:41:29.907Z,100184.75
2023-02-12T23:43:59.650Z,100178.38
2023-02-12T23:46:28.137Z,100180.72
2023-02-12T23:48:56.446Z,100181.09
2023-02-12T23:51:26.340Z,100179.56
2023-02-12T23:53:54.634Z,100172.91
2023-02-12T23:56:23.242Z,100180.50
2023-02-12T23:58:51.727Z,100189.09
